Time;durP1;ratioP1;P1;durP2;ratioP2;P2;SDS_P1;SDS_P2;PMS_P1;PMS_P2;Temp;Humidity;BMP_temperature;BMP_pressure;BME280_temperature;BME280_humidity;BME280_pressure;Samples;Min_cycle;Max_cycle;Signal;HPM_P1;HPM_P2
2021/04/17 00:02:01;;;;;;;5.82;3.50;;;15.10;47.00;;;;;;4372379;32;20058;-40
2021/04/17 00:04:28;;;;;;;5.72;2.40;;;15.10;47.00;;;;;;4373794;32;20066;-39
2021/04/17 00:06:55;;;;;;;4.60;2.25;;;15.10;47.10;;;;;;4374071;32;20068;-39
2021/04/17 00:09:24;;;;;;;5.62;2.60;;;15.10;47.00;;;;;;4371975;32;20065;-39
2021/04/17 00:11:51;;;;;;;8.52;3.45;;;15.10;47.00;;;;;;4373050;32;20267;-38
2021/04/17 00:14:32;;;;;;;6.15;3.08;;;15.10;47.00;;;;;;4373815;32;20073;-34
2021/04/17 00:16:58;;;;;;;8.43;3.17;;;15.00;47.00;;;;;;4372129;32;20533;-39
2021/04/17 00:19:25;;;;;;;8.25;3.30;;;15.00;47.00;;;;;;4373469;32;20070;-39
2021/04/17 00:21:51;;;;;;;7.40;2.95;;;15.00;47.10;;;;;;4371731;32;20093;-37
2021/04/17 00:24:18;;;;;;;5.97;2.17;;;14.90;47.90;;;;;;4373424;32;20096;-37
2021/04/17 00:26:44;;;;;;;3.53;2.15;;;14.90;47.30;;;;;;4372200;32;20058;-39
2021/04/17 00:29:11;;;;;;;7.28;4.22;;;14.80;47.40;;;;;;4373143;32;20115;-39
2021/04/17 00:31:38;;;;;;;8.07;3.17;;;14.90;47.40;;;;;;4371814;32;20109;-39
2021/04/17 00:34:05;;;;;;;4.80;2.37;;;14.90;47.30;;;;;;4373315;32;20139;-37
2021/04/17 00:36:35;;;;;;;9.07;3.55;;;14.80;47.20;;;;;;4373649;32;20547;-41
2021/04/17 00:39:06;;;;;;;7.45;2.58;;;14.80;47.20;;;;;;4371883;32;20069;-39
2021/04/17 00:41:33;;;;;;;6.68;2.72;;;14.80;47.20;;;;;;4371231;32;20070;-39
2021/04/17 00:43:59;;;;;;;6.80;2.47;;;14.80;47.10;;;;;;4371928;32;20085;-40
2021/04/17 00:46:26;;;;;;;8.75;3.22;;;14.80;47.10;;;;;;4371537;32;20169;-38
2021/04/17 00:48:52;;;;;;;3.15;2.05;;;14.80;47.10;;;;;;4359207;32;20050;-39
2021/04/17 00:51:19;;;;;;;3.90;0.88;;;14.80;47.10;;;;;;4359248;32;20054;-35
2021/04/17 00:53:45;;;;;;;4.10;2.05;;;14.70;47.10;;;;;;4373104;32;20051;-38
2021/04/17 00:56:12;;;;;;;11.23;2.20;;;14.60;47.20;;;;;;4372931;32;20075;-38
2021/04/17 00:58:39;;;;;;;5.80;1.62;;;14.60;47.20;;;;;;4373059;32;20061;-38
2021/04/17 01:01:06;;;;;;;6.05;2.75;;;14.60;47.30;;;;;;4372719;32;20198;-39
2021/04/17 01:03:56;;;;;;;8.20;2.60;;;14.50;47.30;;;;;;4373601;32;20074;-38
2021/04/17 01:06:47;;;;;;;7.97;4.18;;;14.40;47.30;;;;;;4371520;32;20066;-39
2021/04/17 01:09:50;;;;;;;6.65;2.95;;;14.40;47.30;;;;;;4346827;32;20089;-38
2021/04/17 01:12:22;;;;;;;8.05;3.50;;;14.30;47.40;;;;;;4356127;32;20081;-39
2021/04/17 01:14:51;;;;;;;7.35;3.30;;;14.20;47.50;;;;;;4371772;32;20077;-39
2021/04/17 01:17:17;;;;;;;7.97;3.33;;;14.10;47.60;;;;;;4359495;32;20078;-37
2021/04/17 01:19:47;;;;;;;7.03;3.20;;;14.00;47.70;;;;;;4359160;32;20069;-38
2021/04/17 01:22:24;;;;;;;10.90;4.30;;;14.00;47.90;;;;;;4372770;32;20059;-38
2021/04/17 01:25:09;;;;;;;12.07;3.55;;;13.90;47.90;;;;;;4389498;32;20088;-40
2021/04/17 01:27:36;;;;;;;9.77;4.50;;;13.80;48.00;;;;;;4391128;32;20065;-37
2021/04/17 01:30:16;;;;;;;11.52;5.50;;;13.70;48.00;;;;;;4377095;32;20149;-37
2021/04/17 01:32:43;;;;;;;7.18;4.37;;;13.70;48.10;;;;;;4391439;32;20050;-38
2021/04/17 01:35:12;;;;;;;7.03;3.15;;;13.60;48.20;;;;;;4376953;32;20062;-38
2021/04/17 01:37:54;;;;;;;2.95;1.58;;;13.50;48.40;;;;;;4390127;32;20156;-38
2021/04/17 01:40:24;;;;;;;8.93;3.83;;;13.50;48.40;;;;;;4390849;32;20509;-38
2021/04/17 01:42:52;;;;;;;4.75;2.58;;;13.40;48.40;;;;;;4391381;32;20088;-38
2021/04/17 01:45:22;;;;;;;8.95;3.17;;;13.30;48.40;;;;;;4389723;32;20062;-37
2021/04/17 01:47:50;;;;;;;4.68;1.90;;;13.30;48.50;;;;;;4389836;32;20057;-38
2021/04/17 01:50:16;;;;;;;7.60;3.33;;;13.30;48.50;;;;;;4390853;32;20138;-37
2021/04/17 01:52:43;;;;;;;7.50;3.08;;;13.20;48.40;;;;;;4389062;32;20104;-36
2021/04/17 01:55:10;;;;;;;9.68;2.95;;;13.20;48.30;;;;;;4376752;32;20104;-37
2021/04/17 01:57:36;;;;;;;7.22;3.45;;;13.10;48.30;;;;;;4389432;32;20069;-37
2021/04/17 02:00:06;;;;;;;7.97;3.55;;;13.10;48.30;;;;;;4388940;32;20076;-37
2021/04/17 02:02:32;;;;;;;7.50;3.10;;;13.00;48.30;;;;;;4390878;32;20065;-37
2021/04/17 02:04:59;;;;;;;8.80;2.47;;;13.00;48.40;;;;;;4389159;32;20069;-35
2021/04/17 02:07:25;;;;;;;6.45;2.45;;;13.00;48.40;;;;;;4390469;32;20090;-36
2021/04/17 02:09:52;;;;;;;4.37;1.30;;;13.00;48.30;;;;;;4390432;32;20492;-37
2021/04/17 02:12:18;;;;;;;16.42;3.50;;;12.90;48.10;;;;;;4390218;32;20536;-36
2021/04/17 02:14:44;;;;;;;5.32;2.40;;;12.90;48.10;;;;;;4390539;32;20054;-37
2021/04/17 02:17:27;;;;;;;6.60;2.70;;;12.90;47.90;;;;;;4388772;32;20094;-37
2021/04/17 02:20:14;;;;;;;2.58;1.15;;;13.00;47.90;;;;;;4390268;32;20070;-37
2021/04/17 02:22:41;;;;;;;4.15;1.90;;;13.00;47.70;;;;;;4387697;32;20073;-36
2021/04/17 02:25:08;;;;;;;5.50;2.28;;;13.10;47.40;;;;;;4361734;32;20093;-37
2021/04/17 02:27:35;;;;;;;3.12;1.90;;;13.10;47.10;;;;;;4374923;32;20085;-36
2021/04/17 02:30:01;;;;;;;7.30;2.70;;;13.20;46.90;;;;;;4361255;32;20062;-37
2021/04/17 02:32:28;;;;;;;5.53;2.17;;;13.20;46.50;;;;;;4373601;32;20127;-36
2021/04/17 02:34:54;;;;;;;8.85;2.55;;;13.30;46.30;;;;;;4375074;32;20078;-37
2021/04/17 02:37:21;;;;;;;9.13;2.42;;;13.30;46.00;;;;;;4375253;32;20061;-35
2021/04/17 02:39:47;;;;;;;12.88;2.97;;;13.30;45.70;;;;;;4375034;32;20158;-35
2021/04/17 02:42:16;;;;;;;6.05;1.95;;;13.30;45.40;;;;;;4374666;32;20073;-37
2021/04/17 02:44:42;;;;;;;12.55;2.00;;;13.40;45.30;;;;;;4375105;32;20065;-36
2021/04/17 02:47:10;;;;;;;6.37;2.30;;;13.40;45.10;;;;;;4375051;32;20082;-38
2021/04/17 02:49:37;;;;;;;9.70;2.30;;;13.40;44.90;;;;;;4374553;32;20069;-36
2021/04/17 02:52:04;;;;;;;5.93;2.05;;;13.50;44.80;;;;;;4373089;32;20077;-38
2021/04/17 02:54:30;;;;;;;5.60;2.55;;;13.50;44.50;;;;;;4375202;32;20062;-38
2021/04/17 02:56:57;;;;;;;3.70;1.60;;;13.60;44.30;;;;;;4375004;32;20064;-38
2021/04/17 02:59:23;;;;;;;9.90;2.40;;;13.60;44.10;;;;;;4374900;32;20081;-38
2021/04/17 03:01:50;;;;;;;5.93;2.05;;;13.70;43.80;;;;;;4360688;32;20502;-36
2021/04/17 03:04:16;;;;;;;5.28;1.67;;;13.70;43.70;;;;;;4373174;32;20483;-37
2021/04/17 03:06:43;;;;;;;3.97;1.58;;;13.80;43.30;;;;;;4374421;32;20089;-36
2021/04/17 03:09:09;;;;;;;5.07;2.20;;;13.90;43.20;;;;;;4374478;32;20145;-36
2021/04/17 03:11:36;;;;;;;3.37;1.52;;;14.00;42.90;;;;;;4356510;32;20125;-37
2021/04/17 03:14:02;;;;;;;7.78;1.45;;;14.00;42.60;;;;;;4357280;32;20148;-35
2021/04/17 03:16:29;;;;;;;6.22;1.70;;;14.20;42.40;;;;;;4357064;32;20517;-37
2021/04/17 03:18:55;;;;;;;4.62;0.90;;;14.20;41.60;;;;;;4357124;32;20059;-37
2021/04/17 03:21:22;;;;;;;7.93;1.60;;;14.30;41.40;;;;;;4356895;32;20150;-38
2021/04/17 03:23:48;;;;;;;2.80;1.17;;;14.50;41.10;;;;;;4356566;32;20203;-37
2021/04/17 03:26:15;;;;;;;6.57;1.35;;;14.60;40.90;;;;;;4356774;32;20058;-37
2021/04/17 03:28:41;;;;;;;10.27;2.00;;;14.70;40.40;;;;;;4356868;32;20558;-38
2021/04/17 03:31:08;;;;;;;3.40;1.02;;;14.80;39.90;;;;;;4356714;32;20533;-37
2021/04/17 03:33:34;;;;;;;10.80;1.83;;;14.90;39.90;;;;;;4356675;32;20070;-38
2021/04/17 03:36:01;;;;;;;7.65;1.17;;;15.00;39.60;;;;;;4356751;32;20548;-39
2021/04/17 03:38:27;;;;;;;2.47;0.90;;;15.10;39.20;;;;;;4356471;32;20134;-39
2021/04/17 03:40:53;;;;;;;5.22;1.20;;;15.10;38.90;;;;;;4357154;32;20077;-39
2021/04/17 03:43:20;;;;;;;4.78;1.30;;;15.20;38.80;;;;;;4370747;32;20481;-39
2021/04/17 03:45:47;;;;;;;5.05;1.50;;;15.20;38.50;;;;;;4373620;32;20065;-38
2021/04/17 03:48:13;;;;;;;15.50;1.48;;;15.20;38.30;;;;;;4373629;32;20057;-39
2021/04/17 03:50:39;;;;;;;3.90;0.90;;;15.20;38.30;;;;;;4373870;32;20161;-38
2021/04/17 03:53:06;;;;;;;5.97;1.70;;;15.20;38.20;;;;;;4373561;32;20173;-40
2021/04/17 03:55:32;;;;;;;2.17;1.05;;;15.40;38.00;;;;;;4373909;32;20443;-38
2021/04/17 03:57:59;;;;;;;1.73;0.95;;;15.40;37.80;;;;;;4374129;32;20583;-39
2021/04/17 04:00:25;;;;;;;1.77;1.05;;;15.50;37.70;;;;;;4373912;32;20661;-37
2021/04/17 04:02:52;;;;;;;4.55;1.42;;;15.60;37.50;;;;;;4373818;32;20069;-38
2021/04/17 04:05:19;;;;;;;1.92;1.00;;;15.80;37.40;;;;;;4373957;32;20089;-39
2021/04/17 04:07:45;;;;;;;1.10;0.50;;;15.90;37.20;;;;;;4372459;32;20093;-39
2021/04/17 04:10:12;;;;;;;3.15;1.10;;;16.00;36.80;;;;;;4360036;32;20076;-40
2021/04/17 04:12:43;;;;;;;2.10;0.65;;;16.20;36.60;;;;;;4372254;32;20077;-39
2021/04/17 04:15:11;;;;;;;2.40;1.15;;;16.30;36.30;;;;;;4372003;32;20058;-39
2021/04/17 04:17:38;;;;;;;4.12;1.33;;;16.40;36.20;;;;;;4373555;32;20057;-39
2021/04/17 04:20:05;;;;;;;4.85;1.33;;;16.50;36.00;;;;;;4373402;32;20526;-38
2021/04/17 04:22:35;;;;;;;6.90;1.20;;;16.50;35.80;;;;;;4372083;32;20062;-39
2021/04/17 04:25:06;;;;;;;5.20;1.27;;;16.50;35.80;;;;;;4386734;32;20069;-37
2021/04/17 04:27:33;;;;;;;4.85;1.42;;;16.60;35.80;;;;;;4388380;32;20066;-39
2021/04/17 04:30:00;;;;;;;5.00;1.35;;;16.70;35.60;;;;;;4389131;32;20058;-40
2021/04/17 04:32:26;;;;;;;5.32;1.37;;;16.90;35.50;;;;;;4388704;32;20158;-39
2021/04/17 04:34:53;;;;;;;7.72;1.42;;;17.00;35.30;;;;;;4388619;32;20522;-40
2021/04/17 04:37:19;;;;;;;7.20;1.20;;;17.10;35.20;;;;;;4386690;32;20082;-40
2021/04/17 04:39:49;;;;;;;3.05;1.27;;;17.20;35.10;;;;;;4387660;32;20092;-39
2021/04/17 04:42:15;;;;;;;2.30;0.90;;;17.30;34.90;;;;;;4387610;32;20057;-39
2021/04/17 04:44:42;;;;;;;3.75;1.62;;;17.50;34.80;;;;;;4388299;32;20062;-38
2021/04/17 04:47:08;;;;;;;10.80;0.75;;;17.70;34.30;;;;;;4388467;32;20454;-39
2021/04/17 04:49:35;;;;;;;6.22;1.75;;;17.80;34.20;;;;;;4388016;32;20083;-40
2021/04/17 04:52:01;;;;;;;3.05;1.30;;;17.90;33.90;;;;;;4388020;32;20062;-39
2021/04/17 04:54:31;;;;;;;3.80;1.08;;;17.90;33.90;;;;;;4388103;32;20169;-40
2021/04/17 04:57:00;;;;;;;3.40;1.20;;;18.00;33.90;;;;;;4374461;32;20501;-40
2021/04/17 04:59:26;;;;;;;9.20;1.67;;;18.10;33.50;;;;;;4387685;32;20128;-39
2021/04/17 05:01:53;;;;;;;6.43;0.95;;;18.30;33.50;;;;;;4387782;32;20588;-40
2021/04/17 05:04:19;;;;;;;6.30;1.52;;;18.40;33.40;;;;;;4387946;32;20105;-41
2021/04/17 05:06:46;;;;;;;6.40;1.30;;;18.50;33.00;;;;;;4386279;32;20066;-40
2021/04/17 05:09:12;;;;;;;4.95;1.15;;;18.60;32.90;;;;;;4386747;32;20076;-39
2021/04/17 05:11:39;;;;;;;2.60;0.40;;;18.70;33.10;;;;;;4386835;32;20080;-38
2021/04/17 05:14:05;;;;;;;3.85;1.17;;;18.90;32.90;;;;;;4387678;32;20170;-39
2021/04/17 05:16:32;;;;;;;0.77;0.35;;;19.10;32.80;;;;;;4387777;32;20072;-41
2021/04/17 05:18:58;;;;;;;3.83;1.08;;;19.30;32.50;;;;;;4387450;32;20173;-41
2021/04/17 05:21:25;;;;;;;1.08;0.50;;;19.50;31.90;;;;;;4387951;32;20082;-40
2021/04/17 05:23:51;;;;;;;2.50;0.60;;;19.70;31.60;;;;;;4379059;32;20158;-41
2021/04/17 05:26:18;;;;;;;3.22;0.60;;;19.70;31.40;;;;;;4372404;32;20074;-40
2021/04/17 05:28:44;;;;;;;2.58;0.60;;;19.90;31.40;;;;;;4372738;32;20143;-40
2021/04/17 05:31:10;;;;;;;4.72;0.88;;;20.10;31.20;;;;;;4373025;32;20097;-40
2021/04/17 05:33:37;;;;;;;3.50;0.73;;;20.40;31.80;;;;;;4372428;32;20458;-41
2021/04/17 05:36:04;;;;;;;3.17;1.05;;;20.60;30.50;;;;;;4373031;32;20062;-41
2021/04/17 05:38:31;;;;;;;0.65;0.28;;;20.80;30.00;;;;;;4373027;32;20145;-40
2021/04/17 05:40:57;;;;;;;1.77;0.45;;;20.90;29.90;;;;;;4371098;32;20101;-41
2021/04/17 05:43:24;;;;;;;1.10;0.60;;;21.00;29.70;;;;;;4372868;32;20126;-41
2021/04/17 05:45:50;;;;;;;4.72;0.70;;;21.10;29.50;;;;;;4371373;32;20070;-41
2021/04/17 05:48:17;;;;;;;1.08;0.68;;;21.30;29.40;;;;;;4372920;32;20084;-41
2021/04/17 05:50:43;;;;;;;6.28;1.00;;;21.40;29.20;;;;;;4372674;32;20102;-40
2021/04/17 05:53:10;;;;;;;2.30;0.70;;;21.50;28.80;;;;;;4372581;32;20074;-42
2021/04/17 05:55:36;;;;;;;1.65;0.70;;;21.70;28.80;;;;;;4371170;32;20189;-37
2021/04/17 05:58:03;;;;;;;7.78;1.10;;;21.80;28.80;;;;;;4372884;32;20525;-40
2021/04/17 06:00:29;;;;;;;2.72;0.50;;;22.00;28.80;;;;;;4372268;32;20469;-41
2021/04/17 06:02:56;;;;;;;1.05;0.60;;;22.20;28.40;;;;;;4372452;32;20070;-42
2021/04/17 06:05:22;;;;;;;0.73;0.47;;;22.30;28.10;;;;;;4372666;32;20087;-40
2021/04/17 06:07:49;;;;;;;1.05;0.50;;;22.50;28.20;;;;;;4372509;32;20149;-42
2021/04/17 06:10:16;;;;;;;5.10;0.73;;;22.60;28.10;;;;;;4371969;32;20473;-41
2021/04/17 06:12:42;;;;;;;4.95;0.75;;;22.70;27.90;;;;;;4375437;32;20066;-43
2021/04/17 06:15:10;;;;;;;1.67;0.60;;;22.80;27.70;;;;;;4373793;32;20552;-41
2021/04/17 06:17:36;;;;;;;4.72;0.80;;;22.70;28.10;;;;;;4372441;32;20078;-42
2021/04/17 06:20:04;;;;;;;2.10;0.85;;;22.80;27.60;;;;;;4373015;32;20145;-40
2021/04/17 06:22:31;;;;;;;3.05;0.60;;;22.90;27.40;;;;;;4372418;32;20137;-41
2021/04/17 06:24:57;;;;;;;1.70;0.77;;;22.90;27.40;;;;;;4387758;32;20561;-43
2021/04/17 06:27:23;;;;;;;3.78;1.10;;;23.00;27.40;;;;;;4387621;32;20162;-42
2021/04/17 06:29:50;;;;;;;8.68;1.83;;;23.10;27.20;;;;;;4387924;32;20070;-43
2021/04/17 06:32:16;;;;;;;2.28;0.90;;;23.10;27.10;;;;;;4387608;32;20070;-40
2021/04/17 06:34:43;;;;;;;3.75;0.80;;;23.20;27.10;;;;;;4387605;32;20092;-39
2021/04/17 06:37:09;;;;;;;5.93;0.82;;;23.20;27.00;;;;;;4387817;32;20254;-41
2021/04/17 06:39:36;;;;;;;1.40;0.55;;;23.20;27.10;;;;;;4387697;32;20069;-40
2021/04/17 06:42:03;;;;;;;2.42;0.77;;;23.30;27.10;;;;;;4387561;32;20085;-43
2021/04/17 06:44:30;;;;;;;3.05;0.80;;;23.40;26.90;;;;;;4374895;32;20564;-43
2021/04/17 06:46:56;;;;;;;5.53;1.75;;;23.50;26.80;;;;;;4350060;32;20200;-41
2021/04/17 06:49:23;;;;;;;4.75;1.33;;;23.60;26.60;;;;;;4385825;32;20077;-44
2021/04/17 06:51:49;;;;;;;8.30;1.83;;;23.60;26.60;;;;;;4376157;32;20137;-43
2021/04/17 06:54:19;;;;;;;9.75;2.00;;;23.60;26.50;;;;;;4388563;32;20065;-42
2021/04/17 06:56:49;;;;;;;7.68;1.87;;;23.60;26.50;;;;;;4359317;32;20145;-41
2021/04/17 06:59:16;;;;;;;4.05;1.35;;;23.70;26.50;;;;;;4371855;32;20481;-42
2021/04/17 07:01:42;;;;;;;7.28;1.70;;;23.70;26.30;;;;;;4371950;32;20086;-41
2021/04/17 07:04:09;;;;;;;3.60;1.62;;;23.70;26.20;;;;;;4372008;32;20256;-42
2021/04/17 07:06:36;;;;;;;7.45;1.45;;;23.70;26.30;;;;;;4359657;32;20103;-43
2021/04/17 07:09:06;;;;;;;4.72;2.00;;;23.80;26.20;;;;;;4372294;32;20065;-42
2021/04/17 07:11:33;;;;;;;6.28;1.37;;;23.80;26.20;;;;;;4372194;32;20173;-41
2021/04/17 07:14:16;;;;;;;3.28;0.85;;;23.90;26.30;;;;;;4371843;32;20093;-42
2021/04/17 07:16:59;;;;;;;4.55;0.60;;;23.90;26.30;;;;;;4359881;32;20228;-42
2021/04/17 07:19:46;;;;;;;5.12;1.05;;;23.90;26.40;;;;;;4371663;32;20518;-42
2021/04/17 07:22:27;;;;;;;2.87;1.52;;;24.10;26.10;;;;;;4370816;32;20076;-40
2021/04/17 07:25:17;;;;;;;4.90;0.73;;;24.20;25.90;;;;;;4371800;32;20557;-42
2021/04/17 07:27:49;;;;;;;3.58;0.82;;;24.30;25.80;;;;;;4372747;32;20167;-42
2021/04/17 07:30:16;;;;;;;2.10;1.08;;;24.50;25.80;;;;;;4374704;32;20158;-41
2021/04/17 07:33:14;;;;;;;8.70;1.00;;;24.50;25.70;;;;;;4374009;32;20518;-39
2021/04/17 07:35:44;;;;;;;7.28;0.80;;;24.70;25.60;;;;;;4374510;32;20148;-40
2021/04/17 07:38:18;;;;;;;2.45;0.82;;;24.70;25.50;;;;;;4371331;32;20065;-41
2021/04/17 07:41:07;;;;;;;2.87;0.70;;;24.90;25.40;;;;;;4371442;32;20078;-43
2021/04/17 07:43:59;;;;;;;5.15;1.10;;;24.90;25.30;;;;;;4371620;32;20101;-43
2021/04/17 07:46:43;;;;;;;6.37;1.12;;;25.00;25.20;;;;;;4371596;32;20088;-42
2021/04/17 07:49:19;;;;;;;8.45;1.15;;;25.10;25.10;;;;;;4371463;32;20549;-42
2021/04/17 07:52:10;;;;;;;1.02;0.47;;;25.30;25.00;;;;;;4371336;32;20173;-42
2021/04/17 07:54:38;;;;;;;18.35;2.42;;;25.40;25.00;;;;;;4371371;32;20599;-42
2021/04/17 07:57:12;;;;;;;2.87;0.70;;;25.40;24.90;;;;;;4358976;32;20087;-40
2021/04/17 07:59:41;;;;;;;4.82;0.93;;;25.40;24.90;;;;;;4359143;32;20094;-42
2021/04/17 08:02:08;;;;;;;1.87;0.75;;;25.50;25.10;;;;;;4358790;32;20074;-42
2021/04/17 08:04:34;;;;;;;4.03;1.10;;;25.60;24.90;;;;;;4371288;32;20098;-42
2021/04/17 08:07:01;;;;;;;1.92;0.70;;;25.80;24.90;;;;;;4358659;32;20176;-41
2021/04/17 08:09:28;;;;;;;1.10;0.52;;;25.90;24.80;;;;;;4371023;32;20089;-43
2021/04/17 08:11:59;;;;;;;5.37;1.10;;;26.00;24.80;;;;;;4371328;32;20068;-42
2021/04/17 08:14:27;;;;;;;2.37;0.70;;;26.20;24.60;;;;;;4370750;32;20146;-43
2021/04/17 08:16:54;;;;;;;3.80;0.62;;;26.40;24.50;;;;;;4373390;32;20066;-41
2021/04/17 08:19:20;;;;;;;6.85;1.00;;;26.50;24.60;;;;;;4373473;32;20066;-42
2021/04/17 08:21:49;;;;;;;1.83;0.30;;;26.70;24.60;;;;;;4373411;32;20141;-41
2021/04/17 08:24:20;;;;;;;1.83;0.70;;;26.90;24.60;;;;;;4373140;32;20529;-39
2021/04/17 08:26:47;;;;;;;0.90;0.50;;;27.10;24.40;;;;;;4371680;32;20485;-40
2021/04/17 08:29:38;;;;;;;4.30;0.85;;;27.20;24.20;;;;;;4359800;32;20066;-42
2021/04/17 08:32:05;;;;;;;1.30;0.62;;;27.30;24.20;;;;;;4361941;32;20105;-41
2021/04/17 08:34:32;;;;;;;6.93;1.10;;;27.30;24.00;;;;;;4359300;32;20615;-42
2021/04/17 08:37:05;;;;;;;4.00;1.05;;;27.30;24.10;;;;;;4371702;32;20062;-40
2021/04/17 08:39:34;;;;;;;5.07;0.90;;;27.40;24.00;;;;;;4373174;32;20150;-42
2021/04/17 08:42:01;;;;;;;4.72;0.90;;;27.30;24.00;;;;;;4373116;32;20078;-42
2021/04/17 08:44:34;;;;;;;1.83;0.70;;;27.30;24.20;;;;;;4373004;32;20098;-41
2021/04/17 08:47:04;;;;;;;4.70;0.50;;;27.40;24.10;;;;;;4371584;32;20089;-39
2021/04/17 08:49:33;;;;;;;1.95;0.60;;;27.50;24.00;;;;;;4346926;32;20085;-40
2021/04/17 08:52:24;;;;;;;5.07;1.30;;;27.60;23.90;;;;;;4373047;32;20139;-41
2021/04/17 08:54:54;;;;;;;3.03;0.98;;;27.60;23.70;;;;;;4372741;32;20150;-40
2021/04/17 08:57:21;;;;;;;2.53;0.60;;;27.50;24.00;;;;;;4372930;32;20069;-40
2021/04/17 08:59:56;;;;;;;1.45;0.60;;;27.60;23.90;;;;;;4371617;32;20072;-39
2021/04/17 09:02:24;;;;;;;3.50;1.35;;;27.60;24.10;;;;;;4371135;32;20081;-42
2021/04/17 09:05:12;;;;;;;1.40;0.60;;;27.70;23.80;;;;;;4372604;32;20109;-40
2021/04/17 09:07:44;;;;;;;5.55;0.80;;;27.80;23.90;;;;;;4373080;32;20141;-42
2021/04/17 09:10:23;;;;;;;5.62;0.80;;;27.90;23.90;;;;;;4372729;32;20151;-41
2021/04/17 09:13:16;;;;;;;2.40;0.50;;;28.20;23.90;;;;;;4372804;32;20118;-39
2021/04/17 09:15:55;;;;;;;3.20;1.27;;;28.20;23.60;;;;;;4372841;32;20089;-40
2021/04/17 09:18:34;;;;;;;2.47;0.40;;;28.20;23.50;;;;;;4372518;32;20196;-39
2021/04/17 09:21:04;;;;;;;1.33;0.60;;;28.30;23.70;;;;;;4373010;32;20051;-41
2021/04/17 09:23:42;;;;;;;5.40;1.25;;;28.50;23.70;;;;;;4372603;32;20488;-41
2021/04/17 09:26:09;;;;;;;8.68;1.92;;;28.50;23.40;;;;;;4371315;32;20121;-40
2021/04/17 09:28:39;;;;;;;2.78;0.60;;;28.50;23.40;;;;;;4372608;32;20159;-41
2021/04/17 09:31:06;;;;;;;2.05;0.82;;;28.50;23.50;;;;;;4371007;32;20077;-40
2021/04/17 09:33:33;;;;;;;1.62;0.60;;;28.60;23.60;;;;;;4372857;32;20065;-41
2021/04/17 09:35:59;;;;;;;4.93;1.12;;;28.90;23.70;;;;;;4372326;32;20078;-42
2021/04/17 09:38:32;;;;;;;4.00;1.00;;;29.10;23.30;;;;;;4372472;32;20092;-40
2021/04/17 09:40:59;;;;;;;4.70;1.10;;;29.10;23.10;;;;;;4372711;32;20525;-40
2021/04/17 09:43:33;;;;;;;1.80;0.70;;;29.20;23.00;;;;;;4372277;32;20529;-40
2021/04/17 09:46:14;;;;;;;7.20;0.80;;;29.20;23.00;;;;;;4374703;32;20081;-39
2021/04/17 09:48:43;;;;;;;3.87;1.15;;;29.20;22.90;;;;;;4375764;32;20081;-41
2021/04/17 09:51:19;;;;;;;4.82;0.80;;;29.20;22.90;;;;;;4375695;32;20062;-40
2021/04/17 09:53:47;;;;;;;1.45;0.80;;;29.10;23.00;;;;;;4376030;32;20475;-39
2021/04/17 09:56:29;;;;;;;3.12;0.90;;;29.10;23.00;;;;;;4374225;32;20480;-40
2021/04/17 09:59:06;;;;;;;2.92;0.65;;;29.20;23.10;;;;;;4373783;32;20073;-40
2021/04/17 10:01:32;;;;;;;3.58;1.50;;;29.20;23.00;;;;;;4373874;32;20067;-39
2021/04/17 10:04:02;;;;;;;10.48;4.15;;;29.40;22.80;;;;;;4375010;32;20099;-40
2021/04/17 10:06:34;;;;;;;4.20;1.73;;;29.50;22.80;;;;;;4375296;32;20105;-38
2021/04/17 10:09:21;;;;;;;7.00;2.05;;;29.50;22.80;;;;;;4375115;32;20558;-39
2021/04/17 10:11:48;;;;;;;7.20;3.10;;;29.60;22.90;;;;;;4373467;32;20149;-39
2021/04/17 10:14:16;;;;;;;10.25;4.50;;;29.70;22.60;;;;;;4375372;32;20170;-38
2021/04/17 10:16:47;;;;;;;9.27;2.42;;;29.70;22.50;;;;;;4373396;32;20081;-39
2021/04/17 10:19:18;;;;;;;10.27;3.78;;;29.70;22.60;;;;;;4360589;32;20066;-40
2021/04/17 10:21:46;;;;;;;5.65;1.70;;;29.80;22.60;;;;;;4360331;32;20063;-39
2021/04/17 10:24:29;;;;;;;4.07;0.70;;;29.70;22.40;;;;;;4372701;32;20058;-40
2021/04/17 10:27:07;;;;;;;15.95;2.67;;;29.70;22.50;;;;;;4372451;32;20197;-40
2021/04/17 10:29:41;;;;;;;3.67;1.00;;;29.90;22.60;;;;;;4372813;32;20121;-41
2021/04/17 10:32:12;;;;;;;2.87;0.98;;;29.90;22.50;;;;;;4372091;32;20062;-40
2021/04/17 10:34:39;;;;;;;5.30;1.48;;;29.80;22.30;;;;;;4372257;32;20094;-38
2021/04/17 10:37:15;;;;;;;9.15;0.77;;;29.80;22.30;;;;;;4372493;32;20145;-40
2021/04/17 10:40:04;;;;;;;4.43;1.87;;;29.80;22.40;;;;;;4372069;32;20163;-40
2021/04/17 10:42:56;;;;;;;6.07;1.65;;;29.90;22.50;;;;;;4371991;32;20598;-39
2021/04/17 10:45:39;;;;;;;4.03;1.12;;;30.00;22.40;;;;;;4372284;32;20070;-37
2021/04/17 10:48:07;;;;;;;1.73;0.70;;;30.10;22.30;;;;;;4372184;32;20070;-40
2021/04/17 10:50:39;;;;;;;3.20;0.80;;;30.00;22.20;;;;;;4372605;32;20699;-40
2021/04/17 10:53:16;;;;;;;2.78;0.88;;;30.10;22.20;;;;;;4372040;32;20558;-40
2021/04/17 10:55:48;;;;;;;2.50;0.95;;;30.20;21.90;;;;;;4373248;32;20126;-42
2021/04/17 10:58:24;;;;;;;6.12;1.10;;;30.10;21.80;;;;;;4389394;32;20069;-39
2021/04/17 11:01:11;;;;;;;9.27;1.87;;;30.00;21.90;;;;;;4390156;32;20070;-39
2021/04/17 11:03:48;;;;;;;8.63;1.83;;;30.00;22.30;;;;;;4389605;32;20150;-39
2021/04/17 11:06:16;;;;;;;0.85;0.65;;;30.20;22.00;;;;;;4389480;32;20123;-40
2021/04/17 11:08:44;;;;;;;3.50;0.75;;;30.10;21.90;;;;;;4389919;32;20073;-41
2021/04/17 11:11:12;;;;;;;3.95;0.80;;;30.10;21.90;;;;;;4389935;32;20148;-39
2021/04/17 11:13:41;;;;;;;2.90;0.80;;;30.00;21.90;;;;;;4389500;32;20182;-40
2021/04/17 11:16:09;;;;;;;3.78;1.33;;;30.10;21.80;;;;;;4389603;32;20426;-39
2021/04/17 11:18:40;;;;;;;0.73;0.40;;;30.10;21.60;;;;;;4388024;32;20049;-40
2021/04/17 11:21:12;;;;;;;1.95;1.25;;;30.20;21.70;;;;;;4387502;32;20070;-39
2021/04/17 11:23:53;;;;;;;7.90;1.08;;;30.30;21.50;;;;;;4389597;32;20066;-39
2021/04/17 11:26:25;;;;;;;4.97;0.75;;;30.30;21.50;;;;;;4387977;32;20162;-38
2021/04/17 11:28:54;;;;;;;2.42;0.60;;;30.30;21.60;;;;;;4387777;32;20074;-43
2021/04/17 11:31:31;;;;;;;1.85;1.08;;;30.20;21.40;;;;;;4389650;32;20171;-41
2021/04/17 11:34:00;;;;;;;8.15;1.30;;;30.20;21.40;;;;;;4389290;32;20065;-39
2021/04/17 11:36:29;;;;;;;1.08;0.57;;;30.30;21.50;;;;;;4389343;32;20070;-38
2021/04/17 11:38:55;;;;;;;6.30;1.15;;;30.30;21.30;;;;;;4389104;32;20081;-39
2021/04/17 11:41:22;;;;;;;1.35;0.80;;;30.30;21.20;;;;;;4389367;32;20177;-40
2021/04/17 11:43:49;;;;;;;3.45;0.88;;;30.20;21.20;;;;;;4389002;32;20092;-40
2021/04/17 11:46:18;;;;;;;7.45;1.33;;;30.00;21.40;;;;;;4389200;32;20105;-40
2021/04/17 11:48:49;;;;;;;6.78;1.10;;;30.00;21.40;;;;;;4388873;32;20062;-40
2021/04/17 11:51:17;;;;;;;3.35;0.40;;;29.90;21.30;;;;;;4389442;32;20070;-40
2021/04/17 11:53:44;;;;;;;1.40;0.75;;;30.00;21.30;;;;;;4388813;32;20074;-40
2021/04/17 11:56:10;;;;;;;8.38;1.40;;;30.00;21.10;;;;;;4387595;32;20062;-40
2021/04/17 11:58:37;;;;;;;3.80;1.25;;;29.80;21.00;;;;;;4387677;32;20154;-40
2021/04/17 12:01:04;;;;;;;15.00;1.60;;;29.80;21.10;;;;;;4388547;32;20139;-40
2021/04/17 12:03:30;;;;;;;3.80;1.25;;;29.80;21.10;;;;;;4389032;32;20069;-40
2021/04/17 12:05:57;;;;;;;2.87;1.00;;;29.80;21.00;;;;;;4389204;32;20502;-40
2021/04/17 12:08:24;;;;;;;5.50;1.27;;;29.80;21.00;;;;;;4388419;32;20586;-40
2021/04/17 12:10:51;;;;;;;9.50;1.00;;;29.70;21.00;;;;;;4387023;32;20572;-39
2021/04/17 12:13:18;;;;;;;9.85;2.47;;;29.60;21.00;;;;;;4389179;32;20105;-41
2021/04/17 12:15:46;;;;;;;6.22;1.12;;;29.50;20.80;;;;;;4388605;32;20061;-40
2021/04/17 12:18:16;;;;;;;4.43;1.50;;;29.40;21.00;;;;;;4388703;32;20077;-39
2021/04/17 12:20:44;;;;;;;1.45;0.80;;;29.30;20.90;;;;;;4387254;32;20521;-40
2021/04/17 12:23:10;;;;;;;8.57;1.48;;;29.20;21.00;;;;;;4384068;32;20070;-42
2021/04/17 12:25:37;;;;;;;3.20;1.00;;;29.20;21.10;;;;;;4373343;32;20147;-41
2021/04/17 12:28:04;;;;;;;9.32;1.80;;;29.20;21.00;;;;;;4373318;32;20146;-39
2021/04/17 12:30:30;;;;;;;4.10;0.80;;;29.10;20.70;;;;;;4373140;32;20063;-41
2021/04/17 12:32:57;;;;;;;6.72;1.87;;;29.10;20.90;;;;;;4373339;32;20474;-39
2021/04/17 12:35:23;;;;;;;8.77;1.37;;;28.90;20.70;;;;;;4372872;32;20082;-40
2021/04/17 12:37:50;;;;;;;4.12;1.62;;;28.80;20.80;;;;;;4373165;32;20089;-41
2021/04/17 12:40:17;;;;;;;7.50;0.73;;;28.70;20.80;;;;;;4373210;32;20443;-41
2021/04/17 12:42:44;;;;;;;3.97;1.00;;;28.80;21.00;;;;;;4373019;32;20561;-39
2021/04/17 12:45:11;;;;;;;2.50;1.10;;;28.90;20.90;;;;;;4373296;32;20521;-41
2021/04/17 12:47:39;;;;;;;3.12;0.60;;;29.00;20.80;;;;;;4373167;32;20051;-40
2021/04/17 12:50:06;;;;;;;6.40;1.70;;;29.00;20.80;;;;;;4372999;32;20469;-39
2021/04/17 12:52:33;;;;;;;4.40;1.27;;;29.10;20.80;;;;;;4372841;32;20592;-43
2021/04/17 12:54:59;;;;;;;2.33;1.08;;;29.10;20.70;;;;;;4371914;32;20073;-40
2021/04/17 12:57:26;;;;;;;13.32;1.45;;;28.90;20.70;;;;;;4371818;32;20069;-41
2021/04/17 12:59:52;;;;;;;4.22;1.90;;;28.80;20.70;;;;;;4373122;32;20061;-40